sensor_id;sensor_type;location;lat;lon;timestamp;pressure;altitude;pressure_sealevel;temperature;humidity
60897;BME280;46749;32.932;-117.130;2023-05-22T00:00:31;101035.91;;;17.74;60.70
60897;BME280;46749;32.932;-117.130;2023-05-22T00:03:00;101033.31;;;17.76;60.35
60897;BME280;46749;32.932;-117.130;2023-05-22T00:05:28;101027.19;;;17.77;60.29
60897;BME280;46749;32.932;-117.130;2023-05-22T00:07:55;101018.41;;;17.75;60.55
60897;BME280;46749;32.932;-117.130;2023-05-22T00:10:21;101020.16;;;17.74;60.65
60897;BME280;46749;32.932;-117.130;2023-05-22T00:12:47;101020.16;;;17.76;60.71
60897;BME280;46749;32.932;-117.130;2023-05-22T00:15:14;101021.94;;;17.77;60.70
60897;BME280;46749;32.932;-117.130;2023-05-22T00:17:41;101017.59;;;17.79;60.71
60897;BME280;46749;32.932;-117.130;2023-05-22T00:20:09;101024.56;;;17.78;60.53
60897;BME280;46749;32.932;-117.130;2023-05-22T00:22:36;101014.03;;;17.77;60.61
60897;BME280;46749;32.932;-117.130;2023-05-22T00:25:06;101013.16;;;17.76;60.77
60897;BME280;46749;32.932;-117.130;2023-05-22T00:27:33;101012.28;;;17.77;60.87
60897;BME280;46749;32.932;-117.130;2023-05-22T00:29:59;101003.59;;;17.80;60.63
60897;BME280;46749;32.932;-117.130;2023-05-22T00:32:26;101008.84;;;17.82;60.58
60897;BME280;46749;32.932;-117.130;2023-05-22T00:34:52;101011.50;;;17.83;60.38
60897;BME280;46749;32.932;-117.130;2023-05-22T00:37:18;101007.09;;;17.81;60.62
60897;BME280;46749;32.932;-117.130;2023-05-22T00:39:45;101010.53;;;17.78;60.55
60897;BME280;46749;32.932;-117.130;2023-05-22T00:42:11;101003.53;;;17.78;60.74
60897;BME280;46749;32.932;-117.130;2023-05-22T00:44:38;101006.22;;;17.80;60.86
60897;BME280;46749;32.932;-117.130;2023-05-22T00:47:04;101012.34;;;17.82;60.51
60897;BME280;46749;32.932;-117.130;2023-05-22T00:49:30;101006.22;;;17.83;60.60
60897;BME280;46749;32.932;-117.130;2023-05-22T00:51:57;101003.63;;;17.85;60.49
60897;BME280;46749;32.932;-117.130;2023-05-22T00:54:23;100997.47;;;17.83;60.43
60897;BME280;46749;32.932;-117.130;2023-05-22T00:56:49;100998.34;;;17.82;60.63
60897;BME280;46749;32.932;-117.130;2023-05-22T00:59:16;101001.84;;;17.84;60.46
60897;BME280;46749;32.932;-117.130;2023-05-22T01:01:42;100993.09;;;17.85;60.45
60897;BME280;46749;32.932;-117.130;2023-05-22T01:04:11;100994.91;;;17.87;60.62
60897;BME280;46749;32.932;-117.130;2023-05-22T01:06:37;100988.78;;;17.88;60.54
60897;BME280;46749;32.932;-117.130;2023-05-22T01:09:06;100991.41;;;17.87;60.54
60897;BME280;46749;32.932;-117.130;2023-05-22T01:14:40;100991.41;;;17.90;60.66
60897;BME280;46749;32.932;-117.130;2023-05-22T01:17:18;100993.22;;;17.92;60.56
60897;BME280;46749;32.932;-117.130;2023-05-22T01:19:59;100994.03;;;17.91;60.61
60897;BME280;46749;32.932;-117.130;2023-05-22T01:31:01;100984.41;;;17.90;60.35
60897;BME280;46749;32.932;-117.130;2023-05-22T01:33:53;100986.22;;;17.93;60.78
60897;BME280;46749;32.932;-117.130;2023-05-22T01:36:23;100992.34;;;17.95;60.35
60897;BME280;46749;32.932;-117.130;2023-05-22T01:38:51;100993.22;;;17.92;60.46
60897;BME280;46749;32.932;-117.130;2023-05-22T01:41:18;100998.44;;;17.91;60.58
60897;BME280;46749;32.932;-117.130;2023-05-22T01:43:46;100998.44;;;17.91;60.73
60897;BME280;46749;32.932;-117.130;2023-05-22T01:46:13;100998.47;;;17.92;60.54
60897;BME280;46749;32.932;-117.130;2023-05-22T01:48:40;100996.72;;;17.94;60.43
60897;BME280;46749;32.932;-117.130;2023-05-22T01:51:14;101002.91;;;17.98;60.43
60897;BME280;46749;32.932;-117.130;2023-05-22T01:53:50;100995.84;;;17.95;60.47
60897;BME280;46749;32.932;-117.130;2023-05-22T01:56:32;100997.59;;;17.95;60.54
60897;BME280;46749;32.932;-117.130;2023-05-22T01:59:20;101004.59;;;17.94;60.67
60897;BME280;46749;32.932;-117.130;2023-05-22T02:01:52;101002.91;;;17.98;60.60
60897;BME280;46749;32.932;-117.130;2023-05-22T02:04:21;101008.19;;;17.99;60.31
60897;BME280;46749;32.932;-117.130;2023-05-22T02:06:51;101006.44;;;18.00;60.49
60897;BME280;46749;32.932;-117.130;2023-05-22T02:09:18;101003.78;;;17.98;60.70
60897;BME280;46749;32.932;-117.130;2023-05-22T02:11:47;101002.03;;;18.00;60.51
60897;BME280;46749;32.932;-117.130;2023-05-22T02:14:13;101000.28;;;18.01;60.51
60897;BME280;46749;32.932;-117.130;2023-05-22T02:16:40;101002.06;;;18.02;60.55
60897;BME280;46749;32.932;-117.130;2023-05-22T02:19:08;101004.69;;;18.03;60.46
60897;BME280;46749;32.932;-117.130;2023-05-22T02:21:35;101002.94;;;18.01;60.58
60897;BME280;46749;32.932;-117.130;2023-05-22T02:24:01;101002.03;;;17.99;60.49
60897;BME280;46749;32.932;-117.130;2023-05-22T02:26:28;101008.19;;;17.99;60.56
60897;BME280;46749;32.932;-117.130;2023-05-22T02:28:54;101012.56;;;18.02;60.57
60897;BME280;46749;32.932;-117.130;2023-05-22T02:31:20;101015.19;;;18.03;60.13
60897;BME280;46749;32.932;-117.130;2023-05-22T02:33:47;101010.88;;;18.05;60.51
60897;BME280;46749;32.932;-117.130;2023-05-22T02:36:13;101016.13;;;18.04;60.25
60897;BME280;46749;32.932;-117.130;2023-05-22T02:38:39;101026.59;;;18.02;60.43
60897;BME280;46749;32.932;-117.130;2023-05-22T02:41:06;101018.69;;;17.99;60.77
60897;BME280;46749;32.932;-117.130;2023-05-22T02:43:32;101019.56;;;18.01;60.36
60897;BME280;46749;32.932;-117.130;2023-05-22T02:45:59;101022.22;;;18.03;60.38
60897;BME280;46749;32.932;-117.130;2023-05-22T02:48:25;101019.63;;;18.04;60.71
60897;BME280;46749;32.932;-117.130;2023-05-22T02:50:53;101021.38;;;18.05;60.37
60897;BME280;46749;32.932;-117.130;2023-05-22T02:53:20;101020.47;;;18.03;60.67
60897;BME280;46749;32.932;-117.130;2023-05-22T02:55:46;101029.22;;;18.02;60.45
60897;BME280;46749;32.932;-117.130;2023-05-22T02:58:13;101025.72;;;18.03;60.48
60897;BME280;46749;32.932;-117.130;2023-05-22T03:00:42;101030.13;;;18.04;60.47
60897;BME280;46749;32.932;-117.130;2023-05-22T03:03:08;101034.53;;;18.05;60.50
60897;BME280;46749;32.932;-117.130;2023-05-22T03:05:34;101035.41;;;18.09;60.94
60897;BME280;46749;32.932;-117.130;2023-05-22T03:08:01;101031.03;;;18.06;60.79
60897;BME280;46749;32.932;-117.130;2023-05-22T03:10:27;101040.66;;;18.06;60.75
60897;BME280;46749;32.932;-117.130;2023-05-22T03:12:53;101033.66;;;18.06;60.86
60897;BME280;46749;32.932;-117.130;2023-05-22T03:15:19;101037.16;;;18.09;60.83
60897;BME280;46749;32.932;-117.130;2023-05-22T03:17:46;101038.09;;;18.11;60.67
60897;BME280;46749;32.932;-117.130;2023-05-22T03:20:32;101045.06;;;18.09;60.52
60897;BME280;46749;32.932;-117.130;2023-05-22T03:22:58;101045.03;;;18.05;60.54
60897;BME280;46749;32.932;-117.130;2023-05-22T03:25:24;101050.28;;;18.05;60.46
60897;BME280;46749;32.932;-117.130;2023-05-22T03:27:50;101061.69;;;18.04;60.84
60897;BME280;46749;32.932;-117.130;2023-05-22T03:30:16;101052.91;;;18.04;60.74
60897;BME280;46749;32.932;-117.130;2023-05-22T03:32:43;101053.78;;;18.04;60.66
60897;BME280;46749;32.932;-117.130;2023-05-22T03:35:09;101052.06;;;18.06;60.70
60897;BME280;46749;32.932;-117.130;2023-05-22T03:37:35;101048.56;;;18.08;60.48
60897;BME280;46749;32.932;-117.130;2023-05-22T03:40:02;101034.50;;;18.04;60.67
60897;BME280;46749;32.932;-117.130;2023-05-22T03:42:29;101044.13;;;18.03;60.62
60897;BME280;46749;32.932;-117.130;2023-05-22T03:44:55;101034.53;;;18.05;60.57
60897;BME280;46749;32.932;-117.130;2023-05-22T03:47:21;101041.53;;;18.06;60.34
60897;BME280;46749;32.932;-117.130;2023-05-22T03:49:47;101045.06;;;18.09;60.56
60897;BME280;46749;32.932;-117.130;2023-05-22T03:52:13;101045.94;;;18.09;60.30
60897;BME280;46749;32.932;-117.130;2023-05-22T03:54:40;101050.28;;;18.05;60.36
60897;BME280;46749;32.932;-117.130;2023-05-22T03:57:06;101058.16;;;18.04;60.38
60897;BME280;46749;32.932;-117.130;2023-05-22T03:59:32;101052.03;;;18.05;60.46
60897;BME280;46749;32.932;-117.130;2023-05-22T04:01:58;101053.81;;;18.08;60.33
60897;BME280;46749;32.932;-117.130;2023-05-22T04:04:27;101044.19;;;18.10;60.41
60897;BME280;46749;32.932;-117.130;2023-05-22T04:06:53;101050.31;;;18.09;60.47
60897;BME280;46749;32.932;-117.130;2023-05-22T04:09:25;101052.94;;;18.07;60.47
60897;BME280;46749;32.932;-117.130;2023-05-22T04:11:52;101056.44;;;18.08;60.33
60897;BME280;46749;32.932;-117.130;2023-05-22T04:14:18;101061.69;;;18.09;60.29
60897;BME280;46749;32.932;-117.130;2023-05-22T04:16:44;101057.31;;;18.10;60.24
60897;BME280;46749;32.932;-117.130;2023-05-22T04:19:10;101069.63;;;18.11;60.45
60897;BME280;46749;32.932;-117.130;2023-05-22T04:21:37;101069.56;;;18.08;60.33
60897;BME280;46749;32.932;-117.130;2023-05-22T04:24:04;101067.81;;;18.05;60.36
60897;BME280;46749;32.932;-117.130;2023-05-22T04:26:34;101068.63;;;18.02;60.53
60897;BME280;46749;32.932;-117.130;2023-05-22T04:29:01;101069.53;;;18.03;60.42
60897;BME280;46749;32.932;-117.130;2023-05-22T04:31:27;101068.69;;;18.04;60.60
60897;BME280;46749;32.932;-117.130;2023-05-22T04:33:53;101059.94;;;18.06;60.36
60897;BME280;46749;32.932;-117.130;2023-05-22T04:36:20;101059.06;;;18.06;60.24
60897;BME280;46749;32.932;-117.130;2023-05-22T04:38:47;101054.63;;;18.03;60.27
60897;BME280;46749;32.932;-117.130;2023-05-22T04:41:14;101057.25;;;18.03;60.52
60897;BME280;46749;32.932;-117.130;2023-05-22T04:43:43;101060.75;;;18.02;60.31
60897;BME280;46749;32.932;-117.130;2023-05-22T04:46:09;101055.53;;;18.04;60.47
60897;BME280;46749;32.932;-117.130;2023-05-22T04:48:35;101057.28;;;18.05;60.31
60897;BME280;46749;32.932;-117.130;2023-05-22T04:51:03;101074.84;;;18.08;60.43
60897;BME280;46749;32.932;-117.130;2023-05-22T04:53:29;101066.06;;;18.05;60.38
60897;BME280;46749;32.932;-117.130;2023-05-22T04:55:56;101070.41;;;18.03;60.47
60897;BME280;46749;32.932;-117.130;2023-05-22T04:58:22;101067.78;;;18.03;60.54
60897;BME280;46749;32.932;-117.130;2023-05-22T05:00:48;101076.56;;;18.04;60.63
60897;BME280;46749;32.932;-117.130;2023-05-22T05:03:17;101087.97;;;18.06;60.32
60897;BME280;46749;32.932;-117.130;2023-05-22T05:05:43;101093.22;;;18.06;60.43
60897;BME280;46749;32.932;-117.130;2023-05-22T05:08:09;101079.22;;;18.05;60.40
60897;BME280;46749;32.932;-117.130;2023-05-22T05:10:35;101076.56;;;18.05;60.32
60897;BME280;46749;32.932;-117.130;2023-05-22T05:13:02;101078.34;;;18.08;60.22
60897;BME280;46749;32.932;-117.130;2023-05-22T05:15:28;101080.09;;;18.08;60.15
60897;BME280;46749;32.932;-117.130;2023-05-22T05:17:54;101074.84;;;18.09;60.04
60897;BME280;46749;32.932;-117.130;2023-05-22T05:20:20;101080.09;;;18.06;60.38
60897;BME280;46749;32.932;-117.130;2023-05-22T05:22:47;101080.06;;;18.04;60.44
60897;BME280;46749;32.932;-117.130;2023-05-22T05:25:13;101085.28;;;18.01;60.39
60897;BME280;46749;32.932;-117.130;2023-05-22T05:27:39;101092.28;;;17.99;60.65
60897;BME280;46749;32.932;-117.130;2023-05-22T05:30:06;101093.16;;;18.01;60.52
60897;BME280;46749;32.932;-117.130;2023-05-22T05:32:32;101088.78;;;18.03;60.27
60897;BME280;46749;32.932;-117.130;2023-05-22T05:34:58;101087.97;;;18.04;60.18
60897;BME280;46749;32.932;-117.130;2023-05-22T05:37:24;101083.56;;;18.05;60.27
60897;BME280;46749;32.932;-117.130;2023-05-22T05:39:51;101078.28;;;18.02;60.21
60897;BME280;46749;32.932;-117.130;2023-05-22T05:42:17;101076.50;;;18.01;60.33
60897;BME280;46749;32.932;-117.130;2023-05-22T05:44:43;101067.75;;;18.02;60.54
60897;BME280;46749;32.932;-117.130;2023-05-22T05:47:09;101067.78;;;18.03;60.21
60897;BME280;46749;32.932;-117.130;2023-05-22T05:49:36;101070.41;;;18.03;60.30
60897;BME280;46749;32.932;-117.130;2023-05-22T05:52:02;101067.75;;;18.02;60.41
60897;BME280;46749;32.932;-117.130;2023-05-22T05:54:29;101074.75;;;18.00;60.39
60897;BME280;46749;32.932;-117.130;2023-05-22T05:56:56;101066.00;;;17.99;60.52
60897;BME280;46749;32.932;-117.130;2023-05-22T05:59:22;101072.13;;;18.00;60.52
60897;BME280;46749;32.932;-117.130;2023-05-22T06:01:49;101059.00;;;18.01;60.20
60897;BME280;46749;32.932;-117.130;2023-05-22T06:04:15;101055.50;;;18.02;60.63
60897;BME280;46749;32.932;-117.130;2023-05-22T06:06:41;101059.00;;;18.03;60.16
60897;BME280;46749;32.932;-117.130;2023-05-22T06:09:09;101058.13;;;18.01;60.53
60897;BME280;46749;32.932;-117.130;2023-05-22T06:11:35;101048.47;;;17.98;60.41
60897;BME280;46749;32.932;-117.130;2023-05-22T06:14:02;101055.47;;;17.99;60.34
60897;BME280;46749;32.932;-117.130;2023-05-22T06:16:29;101053.75;;;18.01;60.39
60897;BME280;46749;32.932;-117.130;2023-05-22T06:18:57;101053.75;;;18.01;60.32
60897;BME280;46749;32.932;-117.130;2023-05-22T06:21:24;101064.25;;;18.01;60.38
60897;BME280;46749;32.932;-117.130;2023-05-22T06:23:50;101050.22;;;17.99;60.39
60897;BME280;46749;32.932;-117.130;2023-05-22T06:26:17;101062.44;;;17.97;60.55
60897;BME280;46749;32.932;-117.130;2023-05-22T06:28:43;101054.56;;;17.97;60.44
60897;BME280;46749;32.932;-117.130;2023-05-22T06:31:10;101053.72;;;17.98;60.34
60897;BME280;46749;32.932;-117.130;2023-05-22T06:33:36;101051.97;;;18.00;60.47
60897;BME280;46749;32.932;-117.130;2023-05-22T06:36:03;101051.97;;;18.00;60.57
60897;BME280;46749;32.932;-117.130;2023-05-22T06:38:30;101059.84;;;17.99;60.02
60897;BME280;46749;32.932;-117.130;2023-05-22T06:40:57;101055.44;;;17.96;60.39
60897;BME280;46749;32.932;-117.130;2023-05-22T06:43:23;101056.28;;;17.95;60.22
60897;BME280;46749;32.932;-117.130;2023-05-22T06:45:50;101061.56;;;17.97;60.19
60897;BME280;46749;32.932;-117.130;2023-05-22T06:48:16;101062.44;;;17.97;60.44
60897;BME280;46749;32.932;-117.130;2023-05-22T06:50:42;101058.97;;;17.98;60.27
60897;BME280;46749;32.932;-117.130;2023-05-22T06:53:08;101047.53;;;17.96;60.16
60897;BME280;46749;32.932;-117.130;2023-05-22T06:55:34;101051.91;;;17.94;60.34
60897;BME280;46749;32.932;-117.130;2023-05-22T06:58:01;101048.41;;;17.94;60.52
60897;BME280;46749;32.932;-117.130;2023-05-22T07:00:27;101046.66;;;17.94;60.58
60897;BME280;46749;32.932;-117.130;2023-05-22T07:02:53;101047.53;;;17.95;60.16
60897;BME280;46749;32.932;-117.130;2023-05-22T07:05:19;101041.41;;;17.97;60.45
60897;BME280;46749;32.932;-117.130;2023-05-22T07:07:45;101043.16;;;17.95;60.38
60897;BME280;46749;32.932;-117.130;2023-05-22T07:10:12;101041.41;;;17.94;60.25
60897;BME280;46749;32.932;-117.130;2023-05-22T07:12:38;101039.63;;;17.93;60.29
60897;BME280;46749;32.932;-117.130;2023-05-22T07:15:04;101035.25;;;17.94;60.50
60897;BME280;46749;32.932;-117.130;2023-05-22T07:17:31;101037.03;;;17.95;60.31
60897;BME280;46749;32.932;-117.130;2023-05-22T07:19:57;101039.66;;;17.96;60.17
60897;BME280;46749;32.932;-117.130;2023-05-22T07:22:23;101041.41;;;17.94;60.36
60897;BME280;46749;32.932;-117.130;2023-05-22T07:24:49;101043.13;;;17.92;60.30
60897;BME280;46749;32.932;-117.130;2023-05-22T07:27:16;101034.34;;;17.90;60.23
60897;BME280;46749;32.932;-117.130;2023-05-22T07:29:42;101042.25;;;17.92;60.14
60897;BME280;46749;32.932;-117.130;2023-05-22T07:32:08;101037.00;;;17.93;60.23
60897;BME280;46749;32.932;-117.130;2023-05-22T07:34:34;101045.78;;;17.94;60.32
60897;BME280;46749;32.932;-117.130;2023-05-22T07:37:07;101034.38;;;17.93;60.24
60897;BME280;46749;32.932;-117.130;2023-05-22T07:39:33;101038.72;;;17.91;60.26
60897;BME280;46749;32.932;-117.130;2023-05-22T07:42:00;101038.69;;;17.88;60.33
60897;BME280;46749;32.932;-117.130;2023-05-22T07:44:26;101037.84;;;17.89;60.19
60897;BME280;46749;32.932;-117.130;2023-05-22T07:46:52;101030.84;;;17.91;60.18
60897;BME280;46749;32.932;-117.130;2023-05-22T07:49:20;101033.47;;;17.91;60.14
60897;BME280;46749;32.932;-117.130;2023-05-22T07:51:48;101031.75;;;17.92;60.03
60897;BME280;46749;32.932;-117.130;2023-05-22T07:54:14;101024.69;;;17.89;60.17
60897;BME280;46749;32.932;-117.130;2023-05-22T07:56:41;101029.06;;;17.87;60.28
60897;BME280;46749;32.932;-117.130;2023-05-22T07:59:08;101029.94;;;17.88;60.22
60897;BME280;46749;32.932;-117.130;2023-05-22T08:01:39;101022.94;;;17.88;60.24
60897;BME280;46749;32.932;-117.130;2023-05-22T08:04:08;101028.19;;;17.90;60.34
60897;BME280;46749;32.932;-117.130;2023-05-22T08:06:34;101027.31;;;17.89;60.29
60897;BME280;46749;32.932;-117.130;2023-05-22T08:09:01;101025.56;;;17.88;60.19
60897;BME280;46749;32.932;-117.130;2023-05-22T08:11:28;101025.53;;;17.85;60.27
60897;BME280;46749;32.932;-117.130;2023-05-22T08:13:54;101021.16;;;17.86;60.40
60897;BME280;46749;32.932;-117.130;2023-05-22T08:16:21;101022.94;;;17.87;60.23
60897;BME280;46749;32.932;-117.130;2023-05-22T08:18:47;101027.31;;;17.88;60.29
60897;BME280;46749;32.932;-117.130;2023-05-22T08:21:14;101027.31;;;17.89;60.23
60897;BME280;46749;32.932;-117.130;2023-05-22T08:23:40;101024.69;;;17.86;60.27
60897;BME280;46749;32.932;-117.130;2023-05-22T08:26:06;101021.13;;;17.84;60.15
60897;BME280;46749;32.932;-117.130;2023-05-22T08:28:35;101018.50;;;17.83;60.18
60897;BME280;46749;32.932;-117.130;2023-05-22T08:31:02;101019.38;;;17.85;60.34
60897;BME280;46749;32.932;-117.130;2023-05-22T08:33:28;101024.69;;;17.86;60.22
60897;BME280;46749;32.932;-117.130;2023-05-22T08:35:54;101027.31;;;17.86;60.15
60897;BME280;46749;32.932;-117.130;2023-05-22T08:38:20;101029.00;;;17.84;60.06
60897;BME280;46749;32.932;-117.130;2023-05-22T08:40:47;101033.38;;;17.82;60.23
60897;BME280;46749;32.932;-117.130;2023-05-22T08:43:19;101038.63;;;17.82;60.07
60897;BME280;46749;32.932;-117.130;2023-05-22T08:45:51;101030.75;;;17.82;60.15
60897;BME280;46749;32.932;-117.130;2023-05-22T08:48:22;101035.13;;;17.85;60.07
60897;BME280;46749;32.932;-117.130;2023-05-22T08:50:52;101029.88;;;17.85;60.17
60897;BME280;46749;32.932;-117.130;2023-05-22T08:53:27;101025.50;;;17.82;60.18
60897;BME280;46749;32.932;-117.130;2023-05-22T08:55:54;101031.59;;;17.79;60.01
60897;BME280;46749;32.932;-117.130;2023-05-22T08:58:21;101031.59;;;17.79;60.16
60897;BME280;46749;32.932;-117.130;2023-05-22T09:00:47;101035.13;;;17.80;60.21
60897;BME280;46749;32.932;-117.130;2023-05-22T09:03:14;101025.47;;;17.81;60.06
60897;BME280;46749;32.932;-117.130;2023-05-22T09:05:40;101024.63;;;17.83;60.16
60897;BME280;46749;32.932;-117.130;2023-05-22T09:08:07;101026.34;;;17.79;60.12
60897;BME280;46749;32.932;-117.130;2023-05-22T09:10:33;101016.66;;;17.77;60.30
60897;BME280;46749;32.932;-117.130;2023-05-22T09:13:09;101015.78;;;17.76;60.21
60897;BME280;46749;32.932;-117.130;2023-05-22T09:15:36;101021.06;;;17.78;60.22
60897;BME280;46749;32.932;-117.130;2023-05-22T09:18:04;101020.22;;;17.79;60.09
60897;BME280;46749;32.932;-117.130;2023-05-22T09:20:34;101025.47;;;17.79;60.18
60897;BME280;46749;32.932;-117.130;2023-05-22T09:23:03;101018.44;;;17.78;60.02
60897;BME280;46749;32.932;-117.130;2023-05-22T09:25:35;101017.53;;;17.77;59.85
60897;BME280;46749;32.932;-117.130;2023-05-22T09:28:01;101019.28;;;17.77;60.31
60897;BME280;46749;32.932;-117.130;2023-05-22T09:30:33;101021.94;;;17.78;60.12
60897;BME280;46749;32.932;-117.130;2023-05-22T09:33:02;101020.22;;;17.79;60.04
60897;BME280;46749;32.932;-117.130;2023-05-22T09:35:31;101007.91;;;17.75;59.83
60897;BME280;46749;32.932;-117.130;2023-05-22T09:37:57;101013.09;;;17.72;60.04
60897;BME280;46749;32.932;-117.130;2023-05-22T09:40:26;101013.03;;;17.69;60.27
60897;BME280;46749;32.932;-117.130;2023-05-22T09:42:53;101015.69;;;17.69;60.33
60897;BME280;46749;32.932;-117.130;2023-05-22T09:45:23;101013.94;;;17.69;60.21
60897;BME280;46749;32.932;-117.130;2023-05-22T09:47:49;101006.97;;;17.71;60.01
60897;BME280;46749;32.932;-117.130;2023-05-22T09:50:16;101009.63;;;17.73;59.90
60897;BME280;46749;32.932;-117.130;2023-05-22T09:52:44;101010.44;;;17.70;60.21
60897;BME280;46749;32.932;-117.130;2023-05-22T09:55:12;101007.78;;;17.67;60.24
60897;BME280;46749;32.932;-117.130;2023-05-22T09:57:43;101007.75;;;17.66;60.13
60897;BME280;46749;32.932;-117.130;2023-05-22T10:00:13;101010.41;;;17.67;60.07
60897;BME280;46749;32.932;-117.130;2023-05-22T10:02:47;101007.78;;;17.69;60.19
60897;BME280;46749;32.932;-117.130;2023-05-22T10:05:14;101010.44;;;17.70;59.92
60897;BME280;46749;32.932;-117.130;2023-05-22T10:07:53;101005.16;;;17.69;60.10
60897;BME280;46749;32.932;-117.130;2023-05-22T10:10:25;101011.28;;;17.68;59.92
60897;BME280;46749;32.932;-117.130;2023-05-22T10:13:02;101003.41;;;17.68;60.13
60897;BME280;46749;32.932;-117.130;2023-05-22T10:15:31;101004.28;;;17.68;60.14
60897;BME280;46749;32.932;-117.130;2023-05-22T10:17:58;101007.78;;;17.69;59.98
60897;BME280;46749;32.932;-117.130;2023-05-22T10:20:26;100997.22;;;17.66;60.21
60897;BME280;46749;32.932;-117.130;2023-05-22T10:22:53;100997.22;;;17.63;60.08
60897;BME280;46749;32.932;-117.130;2023-05-22T10:25:20;100988.41;;;17.59;60.21
60897;BME280;46749;32.932;-117.130;2023-05-22T10:27:47;100996.28;;;17.59;60.25
60897;BME280;46749;32.932;-117.130;2023-05-22T10:30:31;100985.81;;;17.61;60.23
60897;BME280;46749;32.932;-117.130;2023-05-22T10:33:21;100986.72;;;17.63;60.20
60897;BME280;46749;32.932;-117.130;2023-05-22T10:35:57;100983.22;;;17.64;60.06
60897;BME280;46749;32.932;-117.130;2023-05-22T10:40:58;100977.88;;;17.58;60.05
60897;BME280;46749;32.932;-117.130;2023-05-22T10:43:29;100974.38;;;17.57;60.16
60897;BME280;46749;32.932;-117.130;2023-05-22T10:46:05;100971.75;;;17.57;60.10
60897;BME280;46749;32.932;-117.130;2023-05-22T10:48:39;100970.03;;;17.59;60.06
60897;BME280;46749;32.932;-117.130;2023-05-22T10:51:08;100959.50;;;17.59;59.99
60897;BME280;46749;32.932;-117.130;2023-05-22T10:53:35;100970.88;;;17.57;60.06
60897;BME280;46749;32.932;-117.130;2023-05-22T10:56:12;100974.38;;;17.54;60.44
60897;BME280;46749;32.932;-117.130;2023-05-22T10:58:41;100969.09;;;17.54;60.24
60897;BME280;46749;32.932;-117.130;2023-05-22T11:01:19;100969.13;;;17.56;60.07
60897;BME280;46749;32.932;-117.130;2023-05-22T11:06:44;100966.50;;;17.57;59.83
60897;BME280;46749;32.932;-117.130;2023-05-22T11:09:29;100959.44;;;17.53;60.07
60897;BME280;46749;32.932;-117.130;2023-05-22T11:12:15;100956.81;;;17.51;60.28
60897;BME280;46749;32.932;-117.130;2023-05-22T11:17:28;100947.19;;;17.53;60.12
60897;BME280;46749;32.932;-117.130;2023-05-22T11:20:20;100941.09;;;17.55;60.20
60897;BME280;46749;32.932;-117.130;2023-05-22T11:22:57;100946.31;;;17.53;59.91
60897;BME280;46749;32.932;-117.130;2023-05-22T11:25:25;100951.53;;;17.48;60.08
60897;BME280;46749;32.932;-117.130;2023-05-22T11:27:52;100960.28;;;17.47;60.14
60897;BME280;46749;32.932;-117.130;2023-05-22T11:30:19;100955.03;;;17.47;60.08
60897;BME280;46749;32.932;-117.130;2023-05-22T11:32:46;100955.03;;;17.49;60.19
60897;BME280;46749;32.932;-117.130;2023-05-22T11:35:19;100966.44;;;17.51;60.15
60897;BME280;46749;32.932;-117.130;2023-05-22T11:37:47;100960.31;;;17.50;60.03
60897;BME280;46749;32.932;-117.130;2023-05-22T11:40:25;100968.13;;;17.46;60.43
60897;BME280;46749;32.932;-117.130;2023-05-22T11:42:52;100954.97;;;17.44;60.23
60897;BME280;46749;32.932;-117.130;2023-05-22T11:45:18;100967.22;;;17.45;60.11
60897;BME280;46749;32.932;-117.130;2023-05-22T11:47:46;100962.88;;;17.46;60.08
60897;BME280;46749;32.932;-117.130;2023-05-22T11:50:13;100969.88;;;17.47;60.24
60897;BME280;46749;32.932;-117.130;2023-05-22T11:52:41;100966.34;;;17.45;60.10
60897;BME280;46749;32.932;-117.130;2023-05-22T11:55:08;100955.84;;;17.43;60.24
60897;BME280;46749;32.932;-117.130;2023-05-22T11:57:38;100964.59;;;17.44;59.92
60897;BME280;46749;32.932;-117.130;2023-05-22T12:00:06;100967.22;;;17.45;60.08
60897;BME280;46749;32.932;-117.130;2023-05-22T12:02:33;100971.59;;;17.45;59.88
60897;BME280;46749;32.932;-117.130;2023-05-22T12:04:59;100961.97;;;17.45;60.10
60897;BME280;46749;32.932;-117.130;2023-05-22T12:07:26;100959.28;;;17.39;60.16
60897;BME280;46749;32.932;-117.130;2023-05-22T12:09:55;100959.25;;;17.36;60.30
60897;BME280;46749;32.932;-117.130;2023-05-22T12:12:22;100955.78;;;17.37;60.12
60897;BME280;46749;32.932;-117.130;2023-05-22T12:14:49;100959.28;;;17.39;60.19
60897;BME280;46749;32.932;-117.130;2023-05-22T12:17:16;100956.66;;;17.41;60.12
60897;BME280;46749;32.932;-117.130;2023-05-22T12:19:43;100961.09;;;17.42;60.04
60897;BME280;46749;32.932;-117.130;2023-05-22T12:22:10;100958.41;;;17.37;60.07
60897;BME280;46749;32.932;-117.130;2023-05-22T12:24:38;100964.47;;;17.35;60.03
60897;BME280;46749;32.932;-117.130;2023-05-22T12:27:08;100970.56;;;17.32;59.95
60897;BME280;46749;32.932;-117.130;2023-05-22T12:29:41;100969.72;;;17.33;60.25
60897;BME280;46749;32.932;-117.130;2023-05-22T12:32:09;100967.09;;;17.35;60.27
60897;BME280;46749;32.932;-117.130;2023-05-22T12:34:43;100970.63;;;17.35;60.17
60897;BME280;46749;32.932;-117.130;2023-05-22T12:37:21;100975.88;;;17.35;60.10
60897;BME280;46749;32.932;-117.130;2023-05-22T12:39:59;100967.94;;;17.32;60.13
60897;BME280;46749;32.932;-117.130;2023-05-22T12:42:27;100967.94;;;17.29;60.21
60897;BME280;46749;32.932;-117.130;2023-05-22T12:44:55;100971.44;;;17.30;60.24